createdAt,value
2023-01-28T00:01:39.364Z,14.50
2023-01-28T00:04:06.261Z,14.82
2023-01-28T00:06:33.090Z,13.48
2023-01-28T00:09:00.608Z,14.30
2023-01-28T00:11:27.404Z,14.80
2023-01-28T00:13:54.752Z,16.17
2023-01-28T00:16:27.203Z,14.20
2023-01-28T00:18:54.855Z,14.65
2023-01-28T00:21:22.183Z,15.25
2023-01-28T00:23:54.251Z,13.95
2023-01-28T00:26:21.994Z,14.63
2023-01-28T00:28:48.869Z,13.55
2023-01-28T00:31:18.796Z,13.32
2023-01-28T00:33:47.426Z,15.52
2023-01-28T00:36:15.071Z,13.68
2023-01-28T00:38:44.860Z,13.15
2023-01-28T00:41:14.594Z,16.15
2023-01-28T00:43:42.550Z,15.32
2023-01-28T00:46:10.850Z,15.13
2023-01-28T00:48:38.650Z,15.52
2023-01-28T00:51:06.026Z,14.35
2023-01-28T00:53:34.820Z,14.82
2023-01-28T00:56:01.919Z,14.75
2023-01-28T00:58:29.218Z,15.85
2023-01-28T01:00:55.945Z,14.20
2023-01-28T01:03:22.704Z,14.27
2023-01-28T01:05:49.415Z,15.82
2023-01-28T01:08:16.141Z,15.75
2023-01-28T01:10:42.919Z,14.07
2023-01-28T01:13:10.196Z,13.18
2023-01-28T01:15:36.935Z,16.13
2023-01-28T01:18:04.017Z,14.13
2023-01-28T01:20:33.426Z,15.38
2023-01-28T01:23:00.237Z,14.32
2023-01-28T01:25:27.208Z,15.82
2023-01-28T01:27:54.927Z,14.38
2023-01-28T01:30:22.488Z,15.73
2023-01-28T01:32:49.536Z,14.63
2023-01-28T01:35:16.602Z,13.45
2023-01-28T01:37:44.937Z,15.02
2023-01-28T01:40:12.368Z,14.73
2023-01-28T01:42:39.151Z,14.23
2023-01-28T01:45:14.719Z,16.42
2023-01-28T01:47:57.989Z,13.50
2023-01-28T01:50:36.355Z,16.00
2023-01-28T01:53:09.375Z,16.90
2023-01-28T01:55:39.246Z,15.88
2023-01-28T01:58:11.177Z,17.25
2023-01-28T02:00:39.377Z,16.92
2023-01-28T02:03:06.630Z,16.65
2023-01-28T02:05:33.493Z,16.73
2023-01-28T02:08:20.560Z,19.05
2023-01-28T02:10:52.940Z,15.68
2023-01-28T02:13:22.558Z,16.85
2023-01-28T02:15:49.689Z,18.42
2023-01-28T02:18:16.663Z,16.17
2023-01-28T02:21:02.407Z,19.23
2023-01-28T02:23:50.693Z,17.30
2023-01-28T02:26:42.373Z,18.40
2023-01-28T02:29:41.764Z,16.20
2023-01-28T02:32:17.479Z,17.33
2023-01-28T02:35:04.266Z,17.95
2023-01-28T02:37:51.148Z,15.88
2023-01-28T02:40:27.030Z,16.15
2023-01-28T02:42:53.782Z,15.32
2023-01-28T02:45:51.284Z,15.73
2023-01-28T02:48:22.022Z,16.00
2023-01-28T02:51:03.219Z,18.80
2023-01-28T02:53:46.500Z,16.67
2023-01-28T02:56:51.853Z,17.27
2023-01-28T02:59:42.350Z,16.13
2023-01-28T03:02:41.492Z,19.60
2023-01-28T03:05:26.252Z,15.23
2023-01-28T03:07:53.579Z,16.10
2023-01-28T03:10:23.858Z,18.35
2023-01-28T03:13:13.034Z,16.88
2023-01-28T03:16:07.364Z,18.55
2023-01-28T03:19:02.835Z,15.18
2023-01-28T03:21:53.715Z,16.50
2023-01-28T03:24:48.867Z,16.20
2023-01-28T03:27:40.782Z,18.52
2023-01-28T03:30:42.403Z,17.95
2023-01-28T03:33:28.815Z,16.05
2023-01-28T03:36:14.148Z,18.50
2023-01-28T03:38:48.458Z,20.83
2023-01-28T03:41:22.380Z,19.77
2023-01-28T03:43:50.302Z,16.42
2023-01-28T03:46:18.454Z,18.25
2023-01-28T03:48:45.874Z,19.17
2023-01-28T03:51:12.955Z,19.27
2023-01-28T03:53:40.360Z,19.00
2023-01-28T03:56:08.790Z,18.30
2023-01-28T03:58:56.419Z,18.50
2023-01-28T04:01:23.454Z,19.23
2023-01-28T04:03:50.194Z,20.15
2023-01-28T04:06:16.932Z,17.75
2023-01-28T04:08:48.384Z,19.13
2023-01-28T04:11:19.864Z,18.15
2023-01-28T04:13:47.966Z,18.35
2023-01-28T04:16:16.813Z,17.33
2023-01-28T04:18:44.926Z,19.20
2023-01-28T04:21:12.397Z,21.70
2023-01-28T04:23:39.195Z,17.10
2023-01-28T04:26:05.969Z,18.63
2023-01-28T04:28:32.804Z,19.77
2023-01-28T04:30:59.577Z,18.15
2023-01-28T04:33:26.347Z,19.38
2023-01-28T04:35:53.137Z,18.40
2023-01-28T04:38:19.848Z,16.25
2023-01-28T04:40:50.119Z,18.60
2023-01-28T04:43:16.913Z,17.02
2023-01-28T04:45:44.038Z,14.90
2023-01-28T04:48:10.878Z,16.17
2023-01-28T04:50:37.649Z,17.08
2023-01-28T04:53:04.406Z,17.77
2023-01-28T04:55:31.293Z,18.48
2023-01-28T04:57:58.059Z,18.98
2023-01-28T05:00:24.841Z,17.80
2023-01-28T05:02:51.582Z,17.17
2023-01-28T05:05:18.604Z,16.70
2023-01-28T05:07:51.257Z,16.45
2023-01-28T05:10:19.404Z,15.35
2023-01-28T05:12:48.436Z,16.00
2023-01-28T05:15:16.906Z,14.52
2023-01-28T05:17:44.398Z,15.70
2023-01-28T05:20:13.729Z,18.13
2023-01-28T05:22:41.155Z,17.92
2023-01-28T05:25:08.543Z,15.73
2023-01-28T05:27:35.432Z,19.17
2023-01-28T05:30:02.201Z,17.77
2023-01-28T05:32:29.222Z,17.27
2023-01-28T05:34:56.071Z,17.15
2023-01-28T05:37:22.797Z,15.55
2023-01-28T05:39:49.523Z,15.55
2023-01-28T05:42:18.577Z,16.08
2023-01-28T05:44:45.294Z,17.05
2023-01-28T05:47:12.036Z,14.23
2023-01-28T05:49:38.805Z,15.48
2023-01-28T05:52:05.500Z,16.92
2023-01-28T05:54:32.223Z,14.23
2023-01-28T05:56:58.970Z,14.48
2023-01-28T05:59:25.743Z,16.05
2023-01-28T06:01:52.471Z,30.00
2023-01-28T06:04:20.154Z,33.13
2023-01-28T06:06:46.944Z,31.77
2023-01-28T06:09:13.669Z,26.55
2023-01-28T06:11:40.475Z,24.30
2023-01-28T06:14:07.377Z,19.05
2023-01-28T06:16:34.142Z,16.33
2023-01-28T06:19:01.097Z,14.57
2023-01-28T06:21:30.033Z,17.48
2023-01-28T06:23:57.031Z,17.48
2023-01-28T06:26:24.265Z,16.27
2023-01-28T06:28:50.981Z,13.52
2023-01-28T06:31:17.741Z,13.05
2023-01-28T06:33:44.665Z,14.45
2023-01-28T06:36:11.365Z,15.55
2023-01-28T06:38:38.243Z,15.98
2023-01-28T06:41:05.125Z,16.83
2023-01-28T06:43:31.926Z,15.23
2023-01-28T06:45:59.215Z,13.80
2023-01-28T06:48:26.964Z,13.38
2023-01-28T06:50:53.997Z,14.20
2023-01-28T06:53:21.247Z,14.82
2023-01-28T06:55:48.077Z,14.90
2023-01-28T06:58:15.091Z,14.57
2023-01-28T07:00:41.876Z,17.30
2023-01-28T07:03:08.626Z,17.98
2023-01-28T07:05:35.367Z,18.50
2023-01-28T07:08:02.637Z,15.50
2023-01-28T07:10:30.031Z,17.92
2023-01-28T07:12:56.782Z,20.23
2023-01-28T07:15:23.608Z,21.52
2023-01-28T07:17:50.443Z,20.02
2023-01-28T07:20:17.929Z,21.00
2023-01-28T07:22:45.408Z,20.45
2023-01-28T07:25:13.863Z,18.08
2023-01-28T07:27:45.609Z,19.48
2023-01-28T07:30:12.890Z,19.15
2023-01-28T07:32:39.768Z,20.48
2023-01-28T07:35:07.305Z,22.08
2023-01-28T07:37:34.181Z,20.77
2023-01-28T07:40:00.896Z,22.70
2023-01-28T07:42:27.615Z,23.88
2023-01-28T07:44:54.436Z,22.75
2023-01-28T07:47:21.374Z,24.75
2023-01-28T07:49:48.427Z,23.35
2023-01-28T07:52:15.284Z,25.15
2023-01-28T07:54:42.027Z,29.67
2023-01-28T07:57:09.848Z,32.00
2023-01-28T07:59:38.988Z,29.92
2023-01-28T08:02:06.060Z,32.03
2023-01-28T08:04:33.039Z,36.88
2023-01-28T08:06:59.827Z,33.92
2023-01-28T08:09:26.635Z,42.75
2023-01-28T08:11:53.408Z,27.98
2023-01-28T08:14:20.138Z,35.80
2023-01-28T08:16:46.871Z,33.75
2023-01-28T08:19:13.695Z,36.78
2023-01-28T08:21:40.615Z,27.80
2023-01-28T08:24:07.643Z,42.95
2023-01-28T08:26:34.368Z,40.97
2023-01-28T08:29:01.108Z,47.78
2023-01-28T08:31:29.445Z,36.97
2023-01-28T08:33:56.264Z,33.05
2023-01-28T08:36:23.377Z,31.23
2023-01-28T08:38:56.774Z,37.53
2023-01-28T08:43:50.638Z,38.78
2023-01-28T08:46:17.498Z,46.15
2023-01-28T08:48:44.264Z,40.63
2023-01-28T08:51:11.019Z,31.98
2023-01-28T08:53:37.838Z,47.38
2023-01-28T08:56:04.856Z,42.90
2023-01-28T08:58:31.590Z,34.75
2023-01-28T09:00:58.294Z,33.25
2023-01-28T09:03:25.433Z,37.53
2023-01-28T09:05:52.198Z,34.10
2023-01-28T09:08:18.947Z,33.75
2023-01-28T09:10:45.674Z,39.30
2023-01-28T09:13:15.208Z,44.75
2023-01-28T09:15:42.549Z,58.30
2023-01-28T09:18:09.689Z,59.75
2023-01-28T09:20:37.540Z,50.80
2023-01-28T09:23:04.469Z,32.03
2023-01-28T09:25:31.330Z,30.95
2023-01-28T09:27:58.426Z,29.55
2023-01-28T09:30:25.649Z,47.42
2023-01-28T09:32:53.712Z,35.22
2023-01-28T09:35:21.061Z,52.28
2023-01-28T09:37:48.770Z,27.85
2023-01-28T09:40:24.300Z,32.42
2023-01-28T09:43:13.813Z,38.47
2023-01-28T09:45:47.654Z,34.33
2023-01-28T09:48:32.686Z,33.00
2023-01-28T09:51:01.476Z,33.60
2023-01-28T09:53:35.214Z,41.00
2023-01-28T09:56:13.048Z,32.33
2023-01-28T09:58:42.365Z,29.95
2023-01-28T10:01:33.936Z,29.98
2023-01-28T10:04:16.443Z,53.30
2023-01-28T10:06:55.943Z,39.28
2023-01-28T10:09:38.264Z,52.58
2023-01-28T10:12:16.257Z,67.75
2023-01-28T10:15:24.367Z,46.00
2023-01-28T10:18:07.223Z,39.28
2023-01-28T10:20:49.482Z,29.67
2023-01-28T10:23:23.985Z,43.50
2023-01-28T10:25:50.766Z,39.30
2023-01-28T10:28:21.988Z,30.77
2023-01-28T10:30:49.810Z,28.75
2023-01-28T10:33:35.602Z,46.67
2023-01-28T10:36:02.898Z,35.50
2023-01-28T10:38:31.018Z,26.73
2023-01-28T10:41:01.654Z,25.75
2023-01-28T10:43:37.579Z,33.03
2023-01-28T10:46:18.225Z,28.83
2023-01-28T10:48:50.806Z,26.00
2023-01-28T10:51:19.788Z,36.80
2023-01-28T10:53:46.772Z,49.13
2023-01-28T10:56:23.967Z,52.15
2023-01-28T10:59:04.456Z,42.45
2023-01-28T11:02:04.862Z,31.98
2023-01-28T11:04:34.078Z,25.80
2023-01-28T11:07:01.913Z,24.73
2023-01-28T11:09:31.792Z,26.25
2023-01-28T11:12:09.960Z,25.35
2023-01-28T11:14:36.698Z,23.70
2023-01-28T11:17:03.665Z,25.38
2023-01-28T11:19:37.202Z,31.00
2023-01-28T11:22:04.072Z,36.92
2023-01-28T11:24:33.632Z,51.10
2023-01-28T11:27:13.301Z,30.70
2023-01-28T11:29:40.780Z,28.27
2023-01-28T11:32:20.367Z,40.03
2023-01-28T11:34:52.790Z,36.35
2023-01-28T11:37:22.886Z,31.73
2023-01-28T11:40:00.370Z,34.50
2023-01-28T11:42:27.429Z,42.55
2023-01-28T11:44:54.598Z,38.30
2023-01-28T11:47:36.714Z,44.30
2023-01-28T11:50:22.509Z,39.20
2023-01-28T11:53:06.766Z,46.42
2023-01-28T11:55:45.856Z,32.85
2023-01-28T11:58:30.682Z,24.77
2023-01-28T12:01:10.542Z,27.55
2023-01-28T12:04:03.960Z,28.20
2023-01-28T12:07:03.455Z,28.92
2023-01-28T12:09:42.833Z,30.13
2023-01-28T12:12:12.369Z,28.73
2023-01-28T12:15:03.919Z,35.65
2023-01-28T12:17:31.085Z,26.85
2023-01-28T12:20:27.142Z,28.17
2023-01-28T12:23:15.736Z,26.50
2023-01-28T12:25:51.585Z,28.75
2023-01-28T12:28:30.761Z,26.17
2023-01-28T12:31:51.775Z,22.48
2023-01-28T12:34:43.266Z,35.13
2023-01-28T12:37:34.294Z,27.02
2023-01-28T12:40:09.812Z,25.25
2023-01-28T12:42:42.531Z,22.58
2023-01-28T12:45:20.621Z,21.17
2023-01-28T12:47:54.096Z,22.55
2023-01-28T12:50:45.149Z,21.35
2023-01-28T12:53:31.069Z,22.85
2023-01-28T12:56:17.338Z,21.23
2023-01-28T12:58:58.764Z,17.85
2023-01-28T13:01:34.706Z,16.00
2023-01-28T13:04:16.056Z,14.18
2023-01-28T13:06:50.904Z,11.68
2023-01-28T13:09:23.895Z,10.75
2023-01-28T13:11:54.484Z,11.65
2023-01-28T13:14:28.243Z,11.73
2023-01-28T13:16:55.048Z,9.98
2023-01-28T13:19:25.275Z,11.25
2023-01-28T13:21:52.412Z,10.30
2023-01-28T13:24:22.677Z,10.65
2023-01-28T13:26:54.594Z,10.50
2023-01-28T13:29:24.314Z,11.18
2023-01-28T13:31:54.526Z,12.85
2023-01-28T13:34:33.763Z,12.23
2023-01-28T13:37:05.897Z,14.68
2023-01-28T13:39:35.294Z,11.63
2023-01-28T13:42:26.388Z,14.52
2023-01-28T13:44:53.776Z,12.27
2023-01-28T13:47:43.323Z,10.75
2023-01-28T13:50:18.207Z,11.15
2023-01-28T13:52:54.932Z,12.15
2023-01-28T13:55:41.651Z,13.65
2023-01-28T13:58:36.327Z,12.20
2023-01-28T14:01:21.690Z,11.10
2023-01-28T14:04:09.596Z,11.48
2023-01-28T14:06:44.195Z,13.40
2023-01-28T14:09:13.919Z,13.07
2023-01-28T14:12:16.787Z,10.35
2023-01-28T14:15:13.108Z,13.40
2023-01-28T14:17:49.714Z,13.25
2023-01-28T14:20:16.806Z,10.48
2023-01-28T14:22:44.266Z,9.63
2023-01-28T14:25:27.869Z,9.52
2023-01-28T14:30:36.261Z,10.25
2023-01-28T14:33:03.302Z,11.82
2023-01-28T14:35:33.193Z,10.63
2023-01-28T14:38:05.899Z,11.15
2023-01-28T14:40:36.477Z,10.90
2023-01-28T14:43:07.194Z,8.23
2023-01-28T14:45:46.636Z,9.65
2023-01-28T14:48:31.958Z,9.27
2023-01-28T14:51:17.107Z,9.30
2023-01-28T14:54:03.332Z,10.25
2023-01-28T14:56:38.342Z,9.40
2023-01-28T14:59:22.047Z,10.18
2023-01-28T15:01:49.654Z,7.80
2023-01-28T15:04:31.391Z,9.50
2023-01-28T15:07:12.560Z,10.23
2023-01-28T15:09:39.622Z,8.93
2023-01-28T15:12:08.004Z,11.27
2023-01-28T15:14:34.927Z,10.55
2023-01-28T15:17:02.297Z,10.18
2023-01-28T15:19:32.356Z,9.90
2023-01-28T15:22:02.886Z,10.52
2023-01-28T15:24:31.820Z,12.18
2023-01-28T15:26:58.611Z,9.20
2023-01-28T15:29:31.656Z,7.80
2023-01-28T15:31:59.292Z,12.30
2023-01-28T15:34:32.392Z,13.10
2023-01-28T15:37:00.467Z,19.05
2023-01-28T15:39:29.383Z,16.98
2023-01-28T15:42:05.523Z,12.82
2023-01-28T15:44:38.837Z,15.75
2023-01-28T15:49:47.308Z,8.10
2023-01-28T15:52:14.898Z,16.92
2023-01-28T15:54:45.702Z,19.20
2023-01-28T15:57:21.020Z,14.13
2023-01-28T15:59:51.036Z,11.93
2023-01-28T16:02:21.693Z,9.70
2023-01-28T16:05:01.904Z,20.55
2023-01-28T16:07:32.190Z,10.15
2023-01-28T16:10:02.099Z,9.10
2023-01-28T16:12:29.568Z,9.48
2023-01-28T16:15:00.143Z,18.50
2023-01-28T16:17:49.217Z,9.85
2023-01-28T16:20:25.015Z,23.85
2023-01-28T16:22:55.102Z,12.73
2023-01-28T16:25:21.815Z,13.13
2023-01-28T16:27:48.886Z,14.32
2023-01-28T16:30:16.883Z,9.55
2023-01-28T16:32:44.212Z,12.40
2023-01-28T16:35:21.803Z,10.13
2023-01-28T16:37:49.387Z,10.68
2023-01-28T16:40:19.258Z,9.40
2023-01-28T16:42:48.563Z,15.57
2023-01-28T16:45:22.252Z,11.68
2023-01-28T16:47:49.283Z,10.38
2023-01-28T16:50:16.934Z,7.78
2023-01-28T16:52:46.061Z,6.90
2023-01-28T16:55:15.132Z,10.50
2023-01-28T16:57:43.242Z,13.23
2023-01-28T17:00:18.351Z,11.05
2023-01-28T17:02:45.493Z,7.80
2023-01-28T17:05:12.972Z,8.00
2023-01-28T17:07:39.742Z,7.32
2023-01-28T17:10:07.016Z,8.32
2023-01-28T17:12:33.838Z,8.48
2023-01-28T17:15:00.591Z,8.85
2023-01-28T17:17:27.856Z,7.55
2023-01-28T17:19:54.618Z,8.10
2023-01-28T17:22:21.350Z,6.57
2023-01-28T17:24:48.087Z,8.93
2023-01-28T17:27:14.800Z,11.52
2023-01-28T17:29:41.648Z,7.53
2023-01-28T17:32:08.597Z,6.63
2023-01-28T17:34:35.373Z,10.00
2023-01-28T17:37:05.151Z,8.25
2023-01-28T17:39:31.911Z,5.70
2023-01-28T17:41:58.700Z,7.50
2023-01-28T17:44:25.526Z,8.10
2023-01-28T17:46:54.424Z,6.53
2023-01-28T17:49:21.279Z,9.23
2023-01-28T17:51:48.786Z,8.52
2023-01-28T17:54:16.876Z,7.20
2023-01-28T17:56:44.644Z,8.70
2023-01-28T17:59:11.663Z,7.28
2023-01-28T18:01:38.390Z,9.77
2023-01-28T18:04:05.582Z,7.97
2023-01-28T18:06:37.503Z,8.18
2023-01-28T18:09:05.087Z,8.52
2023-01-28T18:11:33.017Z,13.93
2023-01-28T18:13:59.763Z,15.35
2023-01-28T18:16:26.684Z,17.08
2023-01-28T18:18:53.431Z,17.33
2023-01-28T18:21:46.514Z,19.75
2023-01-28T18:24:18.835Z,20.55
2023-01-28T18:26:45.644Z,20.58
2023-01-28T18:29:16.958Z,19.23
2023-01-28T18:31:46.551Z,20.05
2023-01-28T18:34:14.394Z,26.65
2023-01-28T18:36:42.119Z,21.80
2023-01-28T18:39:14.439Z,22.00
2023-01-28T18:41:41.409Z,25.92
2023-01-28T18:44:09.639Z,33.63
2023-01-28T18:46:36.472Z,26.92
2023-01-28T18:49:03.572Z,23.58
2023-01-28T18:51:31.029Z,20.35
2023-01-28T18:53:59.662Z,17.23
2023-01-28T18:56:28.604Z,20.75
2023-01-28T18:59:00.275Z,18.60
2023-01-28T19:01:27.933Z,18.13
2023-01-28T19:03:55.950Z,18.75
2023-01-28T19:06:23.597Z,17.13
2023-01-28T19:08:55.746Z,20.08
2023-01-28T19:11:24.717Z,16.08
2023-01-28T19:13:51.760Z,16.52
2023-01-28T19:16:19.772Z,16.73
2023-01-28T19:18:53.746Z,17.42
2023-01-28T19:21:21.479Z,20.23
2023-01-28T19:23:53.028Z,18.50
2023-01-28T19:26:21.375Z,21.13
2023-01-28T19:28:51.556Z,10.38
2023-01-28T19:31:20.639Z,7.00
2023-01-28T19:33:48.407Z,9.00
2023-01-28T19:36:15.669Z,8.23
2023-01-28T19:38:42.431Z,8.55
2023-01-28T19:41:09.237Z,8.10
2023-01-28T19:43:37.363Z,8.10
2023-01-28T19:46:06.099Z,8.20
2023-01-28T19:48:33.771Z,8.27
2023-01-28T19:51:09.162Z,6.95
2023-01-28T19:53:37.299Z,8.13
2023-01-28T19:56:15.189Z,6.90
2023-01-28T19:58:44.171Z,8.30
2023-01-28T20:01:31.393Z,8.27
2023-01-28T20:04:00.069Z,8.60
2023-01-28T20:06:28.529Z,6.85
2023-01-28T20:08:58.161Z,8.48
2023-01-28T20:11:25.348Z,7.22
2023-01-28T20:13:52.730Z,7.10
2023-01-28T20:16:28.590Z,7.72
2023-01-28T20:18:58.064Z,9.55
2023-01-28T20:21:29.748Z,8.93
2023-01-28T20:23:58.800Z,7.78
2023-01-28T20:26:31.752Z,9.82
2023-01-28T20:29:03.723Z,9.75
2023-01-28T20:31:30.799Z,7.95
2023-01-28T20:33:57.737Z,9.60
2023-01-28T20:36:27.062Z,8.32
2023-01-28T20:38:56.496Z,7.97
2023-01-28T20:41:27.121Z,8.63
2023-01-28T20:43:54.874Z,7.68
2023-01-28T20:46:27.820Z,8.05
2023-01-28T20:48:56.406Z,7.20
2023-01-28T20:51:28.789Z,7.95
2023-01-28T20:53:57.219Z,9.77
2023-01-28T20:56:31.025Z,8.80
2023-01-28T20:59:04.618Z,7.28
2023-01-28T21:01:34.685Z,8.82
2023-01-28T21:04:02.237Z,8.25
2023-01-28T21:06:29.573Z,8.77
2023-01-28T21:08:57.134Z,9.10
2023-01-28T21:11:25.851Z,9.45
2023-01-28T21:13:53.270Z,10.13
2023-01-28T21:16:20.372Z,10.68
2023-01-28T21:18:47.749Z,9.07
2023-01-28T21:21:20.986Z,8.88
2023-01-28T21:26:15.588Z,9.13
2023-01-28T21:28:43.328Z,11.02
2023-01-28T21:31:17.581Z,8.43
2023-01-28T21:33:49.455Z,7.53
2023-01-28T21:36:17.315Z,7.47
2023-01-28T21:38:45.103Z,8.18
2023-01-28T21:41:11.837Z,9.23
2023-01-28T21:43:38.672Z,7.63
2023-01-28T21:46:05.987Z,9.38
2023-01-28T21:48:32.871Z,9.98
2023-01-28T21:51:27.283Z,9.05
2023-01-28T21:53:54.403Z,10.73
2023-01-28T21:56:21.752Z,13.63
2023-01-28T21:59:07.412Z,7.80
2023-01-28T22:01:34.794Z,7.57
2023-01-28T22:04:01.686Z,10.60
2023-01-28T22:06:28.795Z,9.23
2023-01-28T22:08:55.549Z,9.23
2023-01-28T22:11:22.778Z,9.30
2023-01-28T22:13:49.608Z,8.50
2023-01-28T22:16:18.397Z,8.60
2023-01-28T22:18:46.677Z,8.65
2023-01-28T22:21:13.862Z,11.50
2023-01-28T22:23:40.627Z,7.72
2023-01-28T22:26:08.351Z,9.70
2023-01-28T22:28:36.390Z,8.38
2023-01-28T22:31:15.041Z,8.32
2023-01-28T22:33:43.559Z,8.68
2023-01-28T22:36:15.829Z,9.60
2023-01-28T22:38:44.934Z,8.03
2023-01-28T22:41:24.701Z,8.70
2023-01-28T22:43:52.033Z,11.07
2023-01-28T22:46:20.687Z,8.52
2023-01-28T22:48:48.371Z,9.60
2023-01-28T22:51:24.401Z,8.90
2023-01-28T22:53:52.178Z,8.48
2023-01-28T22:56:21.276Z,8.40
2023-01-28T22:58:49.307Z,7.97
2023-01-28T23:01:17.472Z,7.20
2023-01-28T23:03:49.638Z,7.25
2023-01-28T23:06:18.346Z,8.80
2023-01-28T23:08:46.217Z,8.25
2023-01-28T23:11:24.914Z,10.70
2023-01-28T23:14:20.801Z,8.45
2023-01-28T23:17:07.361Z,9.88
2023-01-28T23:19:53.067Z,9.98
2023-01-28T23:22:46.154Z,8.70
2023-01-28T23:25:13.279Z,7.70
2023-01-28T23:27:40.030Z,9.10
2023-01-28T23:30:10.605Z,8.05
2023-01-28T23:32:46.711Z,8.65
2023-01-28T23:35:13.761Z,6.90
2023-01-28T23:37:41.505Z,7.95
2023-01-28T23:40:11.405Z,7.53
2023-01-28T23:42:38.453Z,7.30
2023-01-28T23:45:06.363Z,7.80
2023-01-28T23:47:33.179Z,8.30
2023-01-28T23:50:00.478Z,6.57
2023-01-28T23:52:27.262Z,6.93
2023-01-28T23:54:53.992Z,7.22
2023-01-28T23:57:20.775Z,6.47
2023-01-28T23:59:47.514Z,5.25
